createdAt,value
2023-05-15T00:00:00.310Z,100.00
2023-05-15T00:02:27.952Z,100.00
2023-05-15T00:04:54.595Z,100.00
2023-05-15T00:07:22.222Z,100.00
2023-05-15T00:09:48.690Z,100.00
2023-05-15T00:12:16.178Z,100.00
2023-05-15T00:14:42.687Z,100.00
2023-05-15T00:17:09.887Z,100.00
2023-05-15T00:19:36.377Z,100.00
2023-05-15T00:22:02.861Z,100.00
2023-05-15T00:24:29.349Z,100.00
2023-05-15T00:26:55.955Z,100.00
2023-05-15T00:29:22.538Z,100.00
2023-05-15T00:31:49.134Z,100.00
2023-05-15T00:34:15.713Z,100.00
2023-05-15T00:36:42.183Z,100.00
2023-05-15T00:39:08.676Z,100.00
2023-05-15T00:41:36.959Z,100.00
2023-05-15T00:44:03.920Z,100.00
2023-05-15T00:46:32.028Z,100.00
2023-05-15T00:48:59.889Z,100.00
2023-05-15T00:51:27.261Z,100.00
2023-05-15T00:53:54.924Z,100.00
2023-05-15T00:56:22.266Z,100.00
2023-05-15T00:58:49.645Z,100.00
2023-05-15T01:01:17.166Z,100.00
2023-05-15T01:03:44.481Z,100.00
2023-05-15T01:06:11.465Z,100.00
2023-05-15T01:08:44.090Z,100.00
2023-05-15T01:11:12.620Z,100.00
2023-05-15T01:13:39.437Z,100.00
2023-05-15T01:16:07.432Z,100.00
2023-05-15T01:18:34.034Z,100.00
2023-05-15T01:21:45.865Z,100.00
2023-05-15T01:24:30.960Z,100.00
2023-05-15T01:27:20.591Z,100.00
2023-05-15T01:30:00.775Z,100.00
2023-05-15T01:32:50.436Z,100.00
2023-05-15T01:35:26.105Z,100.00
2023-05-15T01:38:05.125Z,100.00
2023-05-15T01:40:31.600Z,100.00
2023-05-15T01:43:05.956Z,100.00
2023-05-15T01:45:34.090Z,100.00
2023-05-15T01:48:01.998Z,100.00
2023-05-15T01:50:32.603Z,100.00
2023-05-15T01:53:02.137Z,100.00
2023-05-15T01:55:30.512Z,100.00
2023-05-15T01:58:01.171Z,100.00
2023-05-15T02:00:29.324Z,100.00
2023-05-15T02:02:57.665Z,100.00
2023-05-15T02:05:26.361Z,100.00
2023-05-15T02:07:53.678Z,100.00
2023-05-15T02:10:21.254Z,100.00
2023-05-15T02:12:49.504Z,100.00
2023-05-15T02:15:17.395Z,100.00
2023-05-15T02:17:44.083Z,100.00
2023-05-15T02:20:10.690Z,100.00
2023-05-15T02:22:37.189Z,100.00
2023-05-15T02:25:03.958Z,100.00
2023-05-15T02:27:37.048Z,100.00
2023-05-15T02:30:21.949Z,100.00
2023-05-15T02:33:11.483Z,100.00
2023-05-15T02:35:47.486Z,100.00
2023-05-15T02:38:17.378Z,100.00
2023-05-15T02:40:46.146Z,100.00
2023-05-15T02:43:14.106Z,100.00
2023-05-15T02:45:41.904Z,100.00
2023-05-15T02:48:09.178Z,100.00
2023-05-15T02:50:35.905Z,100.00
2023-05-15T02:53:10.190Z,100.00
2023-05-15T02:55:38.822Z,100.00
2023-05-15T02:58:05.816Z,100.00
2023-05-15T03:00:32.318Z,100.00
2023-05-15T03:02:59.867Z,100.00
2023-05-15T03:05:27.096Z,100.00
2023-05-15T03:07:53.920Z,100.00
2023-05-15T03:10:23.735Z,100.00
2023-05-15T03:12:50.336Z,100.00
2023-05-15T03:15:16.985Z,100.00
2023-05-15T03:17:43.537Z,100.00
2023-05-15T03:20:11.177Z,100.00
2023-05-15T03:22:37.689Z,100.00
2023-05-15T03:25:04.437Z,100.00
2023-05-15T03:27:30.904Z,100.00
2023-05-15T03:29:57.426Z,100.00
2023-05-15T03:32:23.978Z,100.00
2023-05-15T03:34:50.502Z,100.00
2023-05-15T03:37:17.041Z,100.00
2023-05-15T03:39:43.596Z,100.00
2023-05-15T03:42:10.082Z,100.00
2023-05-15T03:44:36.593Z,100.00
2023-05-15T03:47:03.163Z,100.00
2023-05-15T03:49:29.678Z,100.00
2023-05-15T03:51:57.213Z,100.00
2023-05-15T03:54:23.915Z,100.00
2023-05-15T03:56:50.580Z,100.00
2023-05-15T03:59:17.044Z,100.00
2023-05-15T04:01:59.387Z,100.00
2023-05-15T04:04:29.823Z,100.00
2023-05-15T04:06:56.316Z,100.00
2023-05-15T04:09:22.760Z,100.00
2023-05-15T04:11:49.406Z,100.00
2023-05-15T04:14:15.897Z,100.00
2023-05-15T04:16:42.537Z,100.00
2023-05-15T04:19:09.264Z,100.00
2023-05-15T04:21:35.866Z,100.00
2023-05-15T04:24:02.377Z,100.00
2023-05-15T04:26:29.574Z,100.00
2023-05-15T04:29:04.033Z,100.00
2023-05-15T04:31:31.861Z,100.00
2023-05-15T04:33:58.703Z,100.00
2023-05-15T04:36:26.215Z,100.00
2023-05-15T04:38:52.767Z,100.00
2023-05-15T04:41:19.264Z,100.00
2023-05-15T04:43:46.011Z,100.00
2023-05-15T04:46:12.557Z,100.00
2023-05-15T04:48:40.075Z,100.00
2023-05-15T04:51:07.599Z,100.00
2023-05-15T04:53:34.280Z,100.00
2023-05-15T04:56:00.811Z,100.00
2023-05-15T04:58:27.293Z,100.00
2023-05-15T05:00:53.831Z,100.00
2023-05-15T05:03:20.417Z,100.00
2023-05-15T05:05:46.932Z,100.00
2023-05-15T05:08:13.448Z,100.00
2023-05-15T05:10:39.956Z,100.00
2023-05-15T05:13:06.457Z,100.00
2023-05-15T05:15:33.016Z,100.00
2023-05-15T05:17:59.570Z,100.00
2023-05-15T05:20:26.497Z,100.00
2023-05-15T05:22:53.132Z,100.00
2023-05-15T05:25:20.020Z,100.00
2023-05-15T05:27:46.535Z,100.00
2023-05-15T05:30:13.228Z,100.00
2023-05-15T05:32:39.787Z,100.00
2023-05-15T05:35:06.565Z,100.00
2023-05-15T05:37:33.169Z,100.00
2023-05-15T05:39:59.686Z,100.00
2023-05-15T05:42:26.940Z,100.00
2023-05-15T05:44:53.488Z,100.00
2023-05-15T05:47:20.033Z,100.00
2023-05-15T05:49:48.170Z,100.00
2023-05-15T05:52:16.016Z,100.00
2023-05-15T05:54:42.780Z,100.00
2023-05-15T05:57:09.693Z,100.00
2023-05-15T05:59:36.291Z,100.00
2023-05-15T06:02:03.798Z,100.00
2023-05-15T06:04:34.130Z,100.00
2023-05-15T06:07:01.008Z,100.00
2023-05-15T06:09:27.760Z,100.00
2023-05-15T06:11:54.241Z,100.00
2023-05-15T06:14:21.289Z,100.00
2023-05-15T06:16:47.928Z,100.00
2023-05-15T06:19:14.592Z,98.67
2023-05-15T06:21:41.220Z,100.00
2023-05-15T06:24:07.770Z,100.00
2023-05-15T06:26:34.407Z,100.00
2023-05-15T06:29:00.885Z,95.50
2023-05-15T06:31:27.449Z,89.67
2023-05-15T06:33:54.922Z,82.03
2023-05-15T06:36:21.457Z,78.12
2023-05-15T06:38:47.969Z,74.93
2023-05-15T06:41:14.521Z,78.57
2023-05-15T06:43:41.103Z,73.22
2023-05-15T06:46:07.609Z,72.48
2023-05-15T06:48:34.312Z,72.36
2023-05-15T06:51:00.833Z,67.97
2023-05-15T06:53:27.306Z,64.58
2023-05-15T06:55:53.818Z,58.76
2023-05-15T06:58:20.381Z,60.03
2023-05-15T07:00:46.833Z,59.45
2023-05-15T07:03:14.501Z,57.99
2023-05-15T07:05:41.087Z,57.81
2023-05-15T07:08:07.596Z,55.12
2023-05-15T07:10:34.082Z,52.12
2023-05-15T07:13:00.559Z,52.54
2023-05-15T07:15:27.168Z,54.39
2023-05-15T07:17:53.768Z,54.85
2023-05-15T07:20:20.530Z,51.81
2023-05-15T07:22:55.518Z,51.84
2023-05-15T07:25:23.972Z,50.27
2023-05-15T07:27:50.999Z,54.58
2023-05-15T07:30:18.460Z,52.05
2023-05-15T07:32:44.984Z,50.22
2023-05-15T07:35:11.641Z,50.89
2023-05-15T07:37:38.610Z,50.09
2023-05-15T07:40:05.955Z,50.93
2023-05-15T07:42:32.427Z,51.41
2023-05-15T07:44:58.951Z,49.72
2023-05-15T07:47:25.629Z,50.34
2023-05-15T07:49:52.150Z,49.73
2023-05-15T07:52:19.269Z,48.45
2023-05-15T07:54:45.725Z,50.29
2023-05-15T07:57:13.066Z,47.77
2023-05-15T07:59:39.923Z,47.27
2023-05-15T08:02:07.252Z,46.84
2023-05-15T08:04:33.871Z,46.89
2023-05-15T08:07:00.721Z,46.34
2023-05-15T08:09:27.194Z,46.27
2023-05-15T08:11:56.446Z,44.91
2023-05-15T08:14:22.983Z,47.85
2023-05-15T08:16:50.378Z,47.36
2023-05-15T08:19:17.033Z,49.18
2023-05-15T08:21:43.637Z,50.22
2023-05-15T08:24:10.072Z,52.09
2023-05-15T08:26:36.608Z,53.35
2023-05-15T08:29:03.212Z,50.78
2023-05-15T08:31:30.754Z,50.91
2023-05-15T08:33:57.304Z,53.76
2023-05-15T08:36:24.027Z,53.50
2023-05-15T08:38:50.565Z,54.16
2023-05-15T08:41:39.989Z,53.17
2023-05-15T08:44:09.393Z,52.78
2023-05-15T08:46:36.506Z,50.97
2023-05-15T08:49:14.603Z,50.16
2023-05-15T08:51:41.400Z,49.12
2023-05-15T08:54:08.668Z,50.50
2023-05-15T08:56:36.134Z,52.26
2023-05-15T08:59:03.725Z,52.31
2023-05-15T09:01:30.595Z,52.11
2023-05-15T09:03:57.149Z,53.28
2023-05-15T09:06:25.046Z,53.40
2023-05-15T09:08:55.424Z,50.11
2023-05-15T09:11:24.432Z,52.09
2023-05-15T09:13:50.930Z,53.73
2023-05-15T09:16:17.667Z,53.71
2023-05-15T09:18:45.060Z,54.21
2023-05-15T09:21:31.569Z,48.89
2023-05-15T09:24:23.751Z,49.08
2023-05-15T09:27:08.550Z,47.54
2023-05-15T09:29:37.993Z,48.62
2023-05-15T09:32:14.552Z,46.67
2023-05-15T09:34:43.100Z,46.52
2023-05-15T09:37:11.566Z,46.40
2023-05-15T09:39:42.842Z,44.27
2023-05-15T09:42:13.296Z,46.01
2023-05-15T09:44:43.588Z,44.75
2023-05-15T09:47:12.863Z,44.89
2023-05-15T09:49:40.118Z,47.11
2023-05-15T09:52:09.876Z,47.03
2023-05-15T09:54:37.204Z,42.40
2023-05-15T09:57:12.056Z,44.28
2023-05-15T09:59:49.244Z,45.37
2023-05-15T10:02:34.608Z,45.72
2023-05-15T10:05:01.385Z,46.87
2023-05-15T10:07:32.212Z,45.58
2023-05-15T10:09:59.872Z,45.04
2023-05-15T10:12:26.881Z,44.10
2023-05-15T10:14:56.655Z,43.33
2023-05-15T10:17:23.450Z,43.87
2023-05-15T10:19:57.866Z,43.15
2023-05-15T10:22:29.621Z,45.50
2023-05-15T10:25:02.686Z,44.84
2023-05-15T10:27:31.101Z,43.14
2023-05-15T10:29:58.595Z,43.44
2023-05-15T10:32:26.210Z,43.82
2023-05-15T10:34:54.476Z,41.85
2023-05-15T10:37:21.801Z,43.06
2023-05-15T10:39:49.658Z,42.69
2023-05-15T10:42:17.126Z,44.05
2023-05-15T10:44:43.594Z,44.09
2023-05-15T10:47:10.715Z,46.22
2023-05-15T10:49:37.380Z,46.89
2023-05-15T10:52:04.093Z,46.91
2023-05-15T10:54:30.727Z,43.89
2023-05-15T10:56:57.361Z,46.76
2023-05-15T10:59:31.787Z,46.14
2023-05-15T11:02:25.704Z,44.94
2023-05-15T11:05:00.273Z,43.26
2023-05-15T11:07:27.563Z,44.85
2023-05-15T11:09:55.023Z,45.25
2023-05-15T11:12:22.197Z,43.60
2023-05-15T11:14:54.411Z,44.82
2023-05-15T11:17:23.460Z,44.17
2023-05-15T11:19:49.871Z,42.74
2023-05-15T11:22:21.649Z,40.82
2023-05-15T11:25:05.624Z,42.93
2023-05-15T11:27:43.209Z,42.90
2023-05-15T11:30:22.987Z,43.98
2023-05-15T11:33:16.391Z,43.11
2023-05-15T11:35:46.633Z,44.67
2023-05-15T11:38:16.863Z,43.58
2023-05-15T11:40:52.440Z,43.59
2023-05-15T11:43:27.125Z,43.94
2023-05-15T11:45:58.176Z,43.92
2023-05-15T11:48:36.092Z,44.30
2023-05-15T11:51:04.292Z,44.69
2023-05-15T11:53:32.067Z,44.23
2023-05-15T11:55:59.116Z,43.86
2023-05-15T11:58:26.447Z,43.52
2023-05-15T12:00:53.817Z,45.43
2023-05-15T12:03:27.703Z,44.29
2023-05-15T12:05:59.749Z,43.86
2023-05-15T12:08:37.679Z,42.95
2023-05-15T12:11:05.051Z,44.37
2023-05-15T12:13:32.925Z,45.08
2023-05-15T12:16:00.546Z,46.65
2023-05-15T12:18:33.342Z,49.09
2023-05-15T12:21:00.334Z,50.06
2023-05-15T12:23:28.392Z,57.13
2023-05-15T12:26:01.508Z,58.71
2023-05-15T12:28:29.499Z,61.52
2023-05-15T12:30:56.525Z,63.59
2023-05-15T12:33:23.960Z,66.21
2023-05-15T12:35:55.266Z,63.29
2023-05-15T12:38:24.930Z,66.43
2023-05-15T12:40:53.778Z,69.39
2023-05-15T12:43:23.564Z,67.38
2023-05-15T12:45:52.763Z,68.56
2023-05-15T12:48:19.559Z,67.46
2023-05-15T12:50:46.053Z,64.35
2023-05-15T12:53:16.537Z,62.95
2023-05-15T12:55:47.107Z,63.08
2023-05-15T12:58:15.762Z,63.81
2023-05-15T13:00:43.293Z,65.12
2023-05-15T13:03:11.484Z,60.75
2023-05-15T13:05:39.708Z,61.71
2023-05-15T13:08:09.321Z,60.37
2023-05-15T13:10:37.961Z,60.10
2023-05-15T13:13:04.518Z,63.93
2023-05-15T13:15:35.438Z,63.53
2023-05-15T13:18:13.084Z,62.38
2023-05-15T13:20:44.573Z,61.35
2023-05-15T13:23:16.088Z,56.34
2023-05-15T13:25:43.279Z,61.62
2023-05-15T13:28:11.380Z,61.30
2023-05-15T13:30:41.915Z,59.83
2023-05-15T13:33:09.728Z,60.63
2023-05-15T13:35:37.293Z,57.76
2023-05-15T13:38:04.355Z,54.85
2023-05-15T13:40:33.430Z,59.05
2023-05-15T13:42:59.969Z,57.14
2023-05-15T13:45:26.779Z,56.60
2023-05-15T13:47:54.558Z,59.19
2023-05-15T13:50:21.205Z,58.36
2023-05-15T13:52:48.790Z,55.69
2023-05-15T13:55:15.456Z,55.89
2023-05-15T13:57:43.136Z,57.24
2023-05-15T14:00:15.037Z,58.82
2023-05-15T14:02:43.518Z,51.24
2023-05-15T14:05:14.857Z,55.22
2023-05-15T14:07:42.326Z,55.30
2023-05-15T14:10:09.770Z,54.12
2023-05-15T14:12:37.358Z,56.06
2023-05-15T14:15:04.416Z,54.14
2023-05-15T14:17:32.103Z,55.09
2023-05-15T14:19:58.745Z,53.90
2023-05-15T14:22:25.413Z,54.97
2023-05-15T14:24:53.230Z,53.45
2023-05-15T14:27:20.137Z,55.05
2023-05-15T14:29:48.923Z,56.22
2023-05-15T14:32:16.429Z,56.03
2023-05-15T14:34:43.193Z,55.24
2023-05-15T14:37:09.725Z,55.63
2023-05-15T14:39:36.337Z,54.95
2023-05-15T14:42:02.845Z,52.07
2023-05-15T14:44:29.337Z,53.53
2023-05-15T14:47:16.701Z,53.26
2023-05-15T14:49:43.303Z,53.09
2023-05-15T14:52:11.641Z,50.43
2023-05-15T14:54:39.188Z,51.82
2023-05-15T14:57:06.174Z,52.92
2023-05-15T14:59:32.709Z,53.25
2023-05-15T15:01:59.285Z,52.44
2023-05-15T15:04:28.194Z,52.78
2023-05-15T15:06:57.574Z,53.60
2023-05-15T15:09:25.584Z,54.30
2023-05-15T15:11:53.665Z,54.16
2023-05-15T15:14:20.405Z,53.87
2023-05-15T15:16:47.207Z,53.37
2023-05-15T15:19:16.123Z,53.84
2023-05-15T15:21:45.171Z,54.35
2023-05-15T15:24:11.645Z,53.87
2023-05-15T15:26:38.125Z,53.28
2023-05-15T15:29:04.620Z,53.91
2023-05-15T15:31:31.673Z,54.39
2023-05-15T15:33:58.794Z,55.84
2023-05-15T15:36:25.990Z,56.13
2023-05-15T15:38:52.522Z,56.63
2023-05-15T15:41:21.562Z,54.45
2023-05-15T15:43:48.337Z,55.08
2023-05-15T15:46:14.970Z,56.03
2023-05-15T15:48:41.636Z,55.97
2023-05-15T15:51:08.270Z,56.66
2023-05-15T15:53:34.934Z,55.79
2023-05-15T15:56:01.615Z,56.71
2023-05-15T15:58:28.893Z,57.09
2023-05-15T16:00:55.625Z,56.63
2023-05-15T16:03:22.272Z,55.84
2023-05-15T16:05:48.953Z,56.75
2023-05-15T16:08:15.466Z,57.17
2023-05-15T16:10:42.013Z,57.67
2023-05-15T16:13:09.367Z,58.29
2023-05-15T16:15:35.852Z,56.15
2023-05-15T16:18:02.385Z,56.75
2023-05-15T16:20:29.288Z,56.69
2023-05-15T16:22:56.298Z,57.75
2023-05-15T16:25:22.903Z,57.17
2023-05-15T16:27:49.491Z,56.89
2023-05-15T16:30:33.799Z,56.38
2023-05-15T16:33:41.281Z,55.81
2023-05-15T16:36:07.967Z,56.28
2023-05-15T16:38:34.700Z,54.96
2023-05-15T16:41:02.184Z,56.04
2023-05-15T16:43:28.906Z,55.37
2023-05-15T16:45:55.565Z,54.41
2023-05-15T16:48:22.964Z,54.29
2023-05-15T16:50:49.482Z,53.79
2023-05-15T16:53:16.032Z,53.69
2023-05-15T16:55:42.571Z,52.97
2023-05-15T16:58:09.052Z,54.02
2023-05-15T17:00:35.681Z,54.34
2023-05-15T17:03:02.281Z,52.95
2023-05-15T17:05:28.816Z,53.74
2023-05-15T17:07:55.260Z,54.26
2023-05-15T17:10:21.809Z,53.59
2023-05-15T17:12:48.329Z,52.22
2023-05-15T17:15:14.874Z,52.97
2023-05-15T17:17:41.527Z,53.56
2023-05-15T17:20:08.603Z,55.46
2023-05-15T17:22:35.127Z,54.94
2023-05-15T17:25:01.687Z,55.33
2023-05-15T17:27:28.264Z,56.39
2023-05-15T17:29:55.011Z,58.65
2023-05-15T17:32:22.066Z,57.91
2023-05-15T17:34:52.560Z,58.32
2023-05-15T17:37:19.450Z,56.55
2023-05-15T17:39:46.184Z,59.14
2023-05-15T17:42:12.747Z,60.92
2023-05-15T17:44:39.271Z,61.89
2023-05-15T17:47:05.894Z,59.49
2023-05-15T17:49:34.188Z,57.53
2023-05-15T17:52:00.766Z,61.45
2023-05-15T17:54:27.433Z,64.62
2023-05-15T17:56:53.922Z,63.14
2023-05-15T17:59:20.444Z,64.23
2023-05-15T18:01:46.984Z,65.63
2023-05-15T18:04:13.523Z,66.87
2023-05-15T18:06:40.493Z,67.39
2023-05-15T18:09:07.758Z,66.76
2023-05-15T18:11:34.288Z,65.22
2023-05-15T18:14:00.930Z,67.63
2023-05-15T18:16:27.938Z,70.08
2023-05-15T18:18:54.551Z,72.16
2023-05-15T18:21:21.263Z,70.30
2023-05-15T18:23:47.859Z,68.59
2023-05-15T18:26:14.382Z,69.87
2023-05-15T18:28:40.961Z,71.40
2023-05-15T18:31:07.579Z,73.28
2023-05-15T18:33:34.267Z,74.70
2023-05-15T18:36:05.259Z,74.08
2023-05-15T18:38:33.349Z,74.60
2023-05-15T18:40:59.839Z,75.32
2023-05-15T18:43:26.338Z,77.64
2023-05-15T18:45:54.174Z,76.49
2023-05-15T18:48:20.833Z,76.27
2023-05-15T18:50:47.313Z,77.71
2023-05-15T18:53:13.879Z,79.64
2023-05-15T18:55:40.380Z,78.34
2023-05-15T18:58:06.861Z,78.36
2023-05-15T19:00:38.644Z,78.40
2023-05-15T19:03:06.441Z,79.59
2023-05-15T19:05:34.134Z,81.73
2023-05-15T19:08:01.345Z,79.07
2023-05-15T19:10:29.484Z,79.47
2023-05-15T19:12:57.034Z,85.06
2023-05-15T19:15:24.755Z,83.41
2023-05-15T19:17:51.817Z,85.18
2023-05-15T19:20:18.511Z,83.04
2023-05-15T19:22:45.017Z,84.82
2023-05-15T19:25:11.789Z,88.07
2023-05-15T19:27:38.272Z,88.08
2023-05-15T19:30:07.023Z,90.84
2023-05-15T19:32:34.347Z,89.52
2023-05-15T19:35:00.981Z,92.32
2023-05-15T19:37:27.626Z,89.82
2023-05-15T19:39:54.174Z,93.63
2023-05-15T19:42:20.748Z,93.95
2023-05-15T19:44:47.212Z,94.33
2023-05-15T19:47:13.696Z,92.86
2023-05-15T19:49:40.370Z,91.33
2023-05-15T19:52:07.467Z,93.49
2023-05-15T19:54:33.991Z,94.66
2023-05-15T19:57:02.912Z,91.63
2023-05-15T19:59:29.927Z,91.67
2023-05-15T20:01:56.692Z,90.65
2023-05-15T20:04:23.305Z,90.51
2023-05-15T20:06:49.856Z,88.49
2023-05-15T20:09:16.402Z,92.53
2023-05-15T20:11:43.111Z,96.81
2023-05-15T20:14:09.571Z,95.14
2023-05-15T20:16:36.988Z,98.68
2023-05-15T20:19:04.114Z,100.00
2023-05-15T20:21:31.950Z,96.23
2023-05-15T20:23:58.624Z,95.79
2023-05-15T20:26:25.104Z,95.44
2023-05-15T20:28:52.779Z,94.90
2023-05-15T20:31:19.425Z,99.02
2023-05-15T20:33:46.085Z,95.44
2023-05-15T20:36:12.646Z,96.98
2023-05-15T20:38:40.509Z,94.30
2023-05-15T20:41:07.293Z,91.76
2023-05-15T20:43:33.781Z,96.53
2023-05-15T20:46:00.505Z,100.00
2023-05-15T20:48:26.999Z,100.00
2023-05-15T20:50:53.506Z,100.00
2023-05-15T20:53:20.094Z,100.00
2023-05-15T20:55:46.831Z,100.00
2023-05-15T20:58:13.336Z,100.00
2023-05-15T21:00:39.778Z,100.00
2023-05-15T21:03:06.528Z,100.00
2023-05-15T21:05:33.189Z,100.00
2023-05-15T21:07:59.775Z,100.00
2023-05-15T21:10:27.461Z,100.00
2023-05-15T21:12:54.127Z,100.00
2023-05-15T21:15:20.661Z,100.00
2023-05-15T21:17:47.182Z,100.00
2023-05-15T21:20:13.684Z,100.00
2023-05-15T21:22:40.143Z,100.00
2023-05-15T21:25:07.073Z,100.00
2023-05-15T21:27:33.554Z,100.00
2023-05-15T21:30:00.089Z,100.00
2023-05-15T21:32:27.624Z,100.00
2023-05-15T21:34:54.098Z,100.00
2023-05-15T21:37:20.575Z,100.00
2023-05-15T21:39:47.034Z,100.00
2023-05-15T21:42:13.480Z,100.00
2023-05-15T21:44:39.927Z,100.00
2023-05-15T21:47:06.825Z,100.00
2023-05-15T21:49:33.315Z,100.00
2023-05-15T21:51:59.870Z,100.00
2023-05-15T21:54:26.381Z,100.00
2023-05-15T21:56:54.854Z,100.00
2023-05-15T21:59:21.622Z,100.00
2023-05-15T22:01:48.565Z,100.00
2023-05-15T22:04:15.120Z,100.00
2023-05-15T22:06:41.639Z,100.00
2023-05-15T22:09:08.370Z,100.00
2023-05-15T22:11:34.803Z,100.00
2023-05-15T22:14:01.269Z,100.00
2023-05-15T22:16:27.863Z,100.00
2023-05-15T22:18:55.203Z,100.00
2023-05-15T22:21:21.734Z,100.00
2023-05-15T22:23:48.390Z,100.00
2023-05-15T22:26:15.041Z,100.00
2023-05-15T22:28:42.087Z,100.00
2023-05-15T22:31:08.664Z,100.00
2023-05-15T22:33:35.561Z,100.00
2023-05-15T22:36:02.338Z,100.00
2023-05-15T22:38:29.286Z,100.00
2023-05-15T22:40:55.768Z,100.00
2023-05-15T22:43:22.563Z,100.00
2023-05-15T22:45:49.357Z,100.00
2023-05-15T22:48:15.887Z,100.00
2023-05-15T22:50:43.721Z,100.00
2023-05-15T22:53:10.268Z,100.00
2023-05-15T22:55:36.686Z,100.00
2023-05-15T22:58:03.961Z,100.00
2023-05-15T23:00:31.034Z,100.00
2023-05-15T23:02:57.976Z,100.00
2023-05-15T23:05:24.971Z,100.00
2023-05-15T23:07:52.675Z,100.00
2023-05-15T23:10:19.512Z,100.00
2023-05-15T23:12:46.371Z,100.00
2023-05-15T23:15:13.634Z,100.00
2023-05-15T23:17:40.542Z,100.00
2023-05-15T23:20:10.450Z,100.00
2023-05-15T23:22:37.112Z,100.00
2023-05-15T23:25:03.965Z,100.00
2023-05-15T23:27:30.499Z,100.00
2023-05-15T23:29:56.972Z,100.00
2023-05-15T23:32:24.519Z,100.00
2023-05-15T23:34:52.070Z,100.00
2023-05-15T23:37:18.912Z,100.00
2023-05-15T23:39:45.564Z,100.00
2023-05-15T23:42:12.486Z,100.00
2023-05-15T23:44:39.159Z,100.00
2023-05-15T23:47:06.646Z,100.00
2023-05-15T23:49:33.607Z,100.00
2023-05-15T23:52:00.592Z,100.00
2023-05-15T23:54:27.066Z,100.00
2023-05-15T23:56:55.653Z,100.00
2023-05-15T23:59:22.091Z,100.00
